createdAt,value
2019-03-29T00:02:24.557Z,44.10
2019-03-29T00:04:54.675Z,45.17
2019-03-29T00:07:38.940Z,40.20
2019-03-29T00:09:57.703Z,42.80
2019-03-29T00:12:29.334Z,40.13
2019-03-29T00:15:01.111Z,40.80
2019-03-29T00:17:30.933Z,41.17
2019-03-29T00:20:00.838Z,42.00
2019-03-29T00:22:33.684Z,43.33
2019-03-29T00:25:03.461Z,39.50
2019-03-29T00:27:33.274Z,39.50
2019-03-29T00:30:03.498Z,37.40
2019-03-29T00:32:33.238Z,37.67
2019-03-29T00:35:03.155Z,36.07
2019-03-29T00:37:34.305Z,41.17
2019-03-29T00:40:05.400Z,31.97
2019-03-29T00:42:35.837Z,34.33
2019-03-29T00:45:06.461Z,38.33
2019-03-29T00:47:36.272Z,34.07
2019-03-29T00:50:07.062Z,37.83
2019-03-29T00:52:37.102Z,36.00
2019-03-29T00:55:12.761Z,36.63
2019-03-29T00:57:42.574Z,34.07
2019-03-29T01:00:12.650Z,34.10
2019-03-29T01:02:42.630Z,36.63
2019-03-29T01:05:18.282Z,35.67
2019-03-29T01:07:48.045Z,38.17
2019-03-29T01:10:22.210Z,40.67
2019-03-29T01:12:52.605Z,34.60
2019-03-29T01:15:32.416Z,40.03
2019-03-29T01:18:02.637Z,38.73
2019-03-29T01:20:32.689Z,36.37
2019-03-29T01:23:05.524Z,34.43
2019-03-29T01:25:38.257Z,35.93
2019-03-29T01:28:08.094Z,35.43
2019-03-29T01:30:38.276Z,37.90
2019-03-29T01:33:07.999Z,35.30
2019-03-29T01:35:37.878Z,36.23
2019-03-29T01:38:20.789Z,32.37
2019-03-29T01:40:42.720Z,36.27
2019-03-29T01:43:13.083Z,32.53
2019-03-29T01:45:43.021Z,34.70
2019-03-29T01:48:12.939Z,37.90
2019-03-29T01:50:43.042Z,33.20
2019-03-29T01:53:15.885Z,35.13
2019-03-29T01:55:45.674Z,32.33
2019-03-29T01:58:15.866Z,32.67
2019-03-29T02:00:45.711Z,37.77
2019-03-29T02:03:16.056Z,34.93
2019-03-29T02:05:45.864Z,41.90
2019-03-29T02:08:15.674Z,37.97
2019-03-29T02:10:48.325Z,41.20
2019-03-29T02:13:18.794Z,41.27
2019-03-29T02:15:48.981Z,39.97
2019-03-29T02:18:18.774Z,39.40
2019-03-29T02:20:50.011Z,39.40
2019-03-29T02:23:20.215Z,35.90
2019-03-29T02:25:49.998Z,38.43
2019-03-29T02:28:19.787Z,39.47
2019-03-29T02:30:49.635Z,38.03
2019-03-29T02:33:20.591Z,40.73
2019-03-29T02:35:50.478Z,38.00
2019-03-29T02:38:20.244Z,37.63
2019-03-29T02:40:51.456Z,38.63
2019-03-29T02:43:21.245Z,36.87
2019-03-29T02:45:51.005Z,38.60
2019-03-29T02:48:23.823Z,36.80
2019-03-29T02:50:53.601Z,40.57
2019-03-29T02:53:23.440Z,37.70
2019-03-29T02:55:53.225Z,32.43
2019-03-29T02:58:23.053Z,37.47
2019-03-29T03:00:52.803Z,33.00
2019-03-29T03:03:22.577Z,31.57
2019-03-29T03:05:52.341Z,35.87
2019-03-29T03:08:22.121Z,31.43
2019-03-29T03:10:51.870Z,34.00
2019-03-29T03:13:21.712Z,34.97
2019-03-29T03:15:51.802Z,34.03
2019-03-29T03:18:21.573Z,32.50
2019-03-29T03:20:51.320Z,31.70
2019-03-29T03:23:21.740Z,33.47
2019-03-29T03:26:22.404Z,30.77
2019-03-29T03:28:52.123Z,32.73
2019-03-29T03:31:22.011Z,38.10
2019-03-29T03:33:53.861Z,31.30
2019-03-29T03:36:23.847Z,35.60
2019-03-29T03:38:54.538Z,32.13
2019-03-29T03:41:24.290Z,28.83
2019-03-29T03:43:54.081Z,33.47
2019-03-29T03:46:23.783Z,30.60
2019-03-29T03:48:53.630Z,30.83
2019-03-29T03:51:23.928Z,30.60
2019-03-29T03:53:53.721Z,34.83
2019-03-29T03:56:23.945Z,32.07
2019-03-29T03:58:53.973Z,32.60
2019-03-29T04:01:25.991Z,29.10
2019-03-29T04:03:55.800Z,33.60
2019-03-29T04:06:25.588Z,31.63
2019-03-29T04:08:55.305Z,30.87
2019-03-29T04:11:27.362Z,31.73
2019-03-29T04:13:58.237Z,31.80
2019-03-29T04:16:28.258Z,36.07
2019-03-29T04:18:58.049Z,38.07
2019-03-29T04:21:27.768Z,35.73
2019-03-29T04:23:57.521Z,34.77
2019-03-29T04:26:27.374Z,35.57
2019-03-29T04:29:05.007Z,35.50
2019-03-29T04:31:29.186Z,39.60
2019-03-29T04:33:59.098Z,30.00
2019-03-29T04:36:28.917Z,35.00
2019-03-29T04:38:58.741Z,32.07
2019-03-29T04:41:28.628Z,35.73
2019-03-29T04:43:58.748Z,28.30
2019-03-29T04:46:28.599Z,36.80
2019-03-29T04:48:58.363Z,28.63
2019-03-29T04:51:28.229Z,33.53
2019-03-29T04:54:00.765Z,27.67
2019-03-29T04:56:34.259Z,31.53
2019-03-29T04:59:04.047Z,32.10
2019-03-29T05:01:33.821Z,33.03
2019-03-29T05:04:09.545Z,33.57
2019-03-29T05:06:39.788Z,33.20
2019-03-29T05:09:10.031Z,35.63
2019-03-29T05:11:41.454Z,32.37
2019-03-29T05:14:11.299Z,29.87
2019-03-29T05:16:41.094Z,31.23
2019-03-29T05:19:10.934Z,35.33
2019-03-29T05:21:41.006Z,33.50
2019-03-29T05:24:10.699Z,29.10
2019-03-29T05:26:41.403Z,31.83
2019-03-29T05:29:11.214Z,31.67
2019-03-29T05:31:41.317Z,30.77
2019-03-29T05:34:11.128Z,31.40
2019-03-29T05:36:41.774Z,28.00
2019-03-29T05:39:11.644Z,27.73
2019-03-29T05:41:41.964Z,27.20
2019-03-29T05:44:13.781Z,23.97
2019-03-29T05:46:43.629Z,25.60
2019-03-29T05:49:13.886Z,28.17
2019-03-29T05:51:48.847Z,29.33
2019-03-29T05:54:19.719Z,41.20
2019-03-29T05:56:53.002Z,45.43
2019-03-29T05:59:26.323Z,30.93
2019-03-29T06:01:56.136Z,26.43
2019-03-29T06:04:25.948Z,24.27
2019-03-29T06:06:55.768Z,22.23
2019-03-29T06:09:25.748Z,25.80
2019-03-29T06:12:01.631Z,78.37
2019-03-29T06:14:31.764Z,25.60
2019-03-29T06:17:01.579Z,24.47
2019-03-29T06:19:31.553Z,28.70
2019-03-29T06:22:01.573Z,22.20
2019-03-29T06:24:31.361Z,19.47
2019-03-29T06:27:04.059Z,65.00
2019-03-29T06:29:33.687Z,22.73
2019-03-29T06:32:06.834Z,21.73
2019-03-29T06:34:36.643Z,24.83
2019-03-29T06:37:09.863Z,29.03
2019-03-29T06:39:39.731Z,20.30
2019-03-29T06:42:09.639Z,23.50
2019-03-29T06:44:39.614Z,20.67
2019-03-29T06:47:11.566Z,22.00
2019-03-29T06:49:42.261Z,21.20
2019-03-29T06:52:12.077Z,23.33
2019-03-29T06:54:41.896Z,22.80
2019-03-29T06:57:12.316Z,22.03
2019-03-29T06:59:42.428Z,20.37
2019-03-29T07:02:12.178Z,21.37
2019-03-29T07:04:44.307Z,24.50
2019-03-29T07:07:17.356Z,22.03
2019-03-29T07:09:47.437Z,18.97
2019-03-29T07:12:17.232Z,20.50
2019-03-29T07:14:48.636Z,19.83
2019-03-29T07:17:18.399Z,21.07
2019-03-29T07:19:48.248Z,19.17
2019-03-29T07:22:18.073Z,20.53
2019-03-29T07:24:47.975Z,18.07
2019-03-29T07:27:17.871Z,16.20
2019-03-29T07:29:47.754Z,20.07
2019-03-29T07:32:17.851Z,15.10
2019-03-29T07:34:49.188Z,17.23
2019-03-29T07:37:22.032Z,15.93
2019-03-29T07:39:54.131Z,14.33
2019-03-29T07:42:23.990Z,18.00
2019-03-29T07:44:53.870Z,17.07
2019-03-29T07:47:23.952Z,16.13
2019-03-29T07:49:54.517Z,16.00
2019-03-29T07:52:24.965Z,15.37
2019-03-29T07:54:54.792Z,17.70
2019-03-29T07:57:27.421Z,15.93
2019-03-29T07:59:58.169Z,13.80
2019-03-29T08:02:28.921Z,18.73
2019-03-29T08:04:58.914Z,42.97
2019-03-29T08:07:31.365Z,15.00
2019-03-29T08:10:03.356Z,12.63
2019-03-29T08:12:32.081Z,21.70
2019-03-29T08:15:01.966Z,14.10
2019-03-29T08:17:31.916Z,15.47
2019-03-29T08:20:36.495Z,12.97
2019-03-29T08:22:33.825Z,15.53
2019-03-29T08:25:06.644Z,16.00
2019-03-29T08:27:36.497Z,17.40
2019-03-29T08:30:07.641Z,16.53
2019-03-29T08:32:37.527Z,17.43
2019-03-29T08:35:10.338Z,16.17
2019-03-29T08:37:41.645Z,17.13
2019-03-29T08:40:11.437Z,16.20
2019-03-29T08:42:41.294Z,14.40
2019-03-29T08:45:13.379Z,15.93
2019-03-29T08:47:43.183Z,14.27
2019-03-29T08:50:12.963Z,14.87
2019-03-29T08:52:42.839Z,14.10
2019-03-29T08:55:12.757Z,15.67
2019-03-29T08:57:42.891Z,15.50
2019-03-29T09:00:15.742Z,13.73
2019-03-29T09:02:44.986Z,15.40
2019-03-29T09:05:16.103Z,19.37
2019-03-29T09:07:46.047Z,19.27
2019-03-29T09:10:26.092Z,16.67
2019-03-29T09:12:55.945Z,15.67
2019-03-29T09:15:26.523Z,16.43
2019-03-29T09:17:59.974Z,18.30
2019-03-29T09:20:29.760Z,16.93
2019-03-29T09:23:00.264Z,20.50
2019-03-29T09:25:30.029Z,15.70
2019-03-29T09:27:59.808Z,13.23
2019-03-29T09:30:29.559Z,19.03
2019-03-29T09:32:59.683Z,18.27
2019-03-29T09:35:29.552Z,17.10
2019-03-29T09:38:00.718Z,15.93
2019-03-29T09:40:30.595Z,14.17
2019-03-29T09:43:08.593Z,15.00
2019-03-29T09:45:34.832Z,17.10
2019-03-29T09:48:07.763Z,17.13
2019-03-29T09:50:37.527Z,21.03
2019-03-29T09:53:09.559Z,20.27
2019-03-29T09:55:45.667Z,17.17
2019-03-29T09:58:17.084Z,19.23
2019-03-29T10:00:46.903Z,17.80
2019-03-29T10:03:16.714Z,18.90
2019-03-29T10:05:46.641Z,16.23
2019-03-29T10:08:16.774Z,15.73
2019-03-29T10:10:46.596Z,17.70
2019-03-29T10:13:19.476Z,15.27
2019-03-29T10:15:51.389Z,15.03
2019-03-29T10:18:23.693Z,17.47
2019-03-29T10:20:54.470Z,14.47
2019-03-29T10:23:24.553Z,12.30
2019-03-29T10:25:58.513Z,10.67
2019-03-29T10:28:26.760Z,10.57
2019-03-29T10:30:56.658Z,11.10
2019-03-29T10:33:26.846Z,13.00
2019-03-29T10:35:56.869Z,10.57
2019-03-29T10:38:26.780Z,11.13
2019-03-29T10:40:57.439Z,11.80
2019-03-29T10:43:27.861Z,10.97
2019-03-29T10:45:57.739Z,9.67
2019-03-29T10:48:27.740Z,9.10
2019-03-29T10:50:57.744Z,7.70
2019-03-29T10:53:28.869Z,7.83
2019-03-29T10:55:59.038Z,9.73
2019-03-29T10:58:28.916Z,8.93
2019-03-29T11:00:58.889Z,9.27
2019-03-29T11:03:29.081Z,9.13
2019-03-29T11:05:59.128Z,10.17
2019-03-29T11:08:28.937Z,9.63
2019-03-29T11:10:58.650Z,7.63
2019-03-29T11:13:28.471Z,8.70
2019-03-29T11:15:59.177Z,7.90
2019-03-29T11:18:29.023Z,7.67
2019-03-29T11:20:58.941Z,8.87
2019-03-29T11:23:31.683Z,7.37
2019-03-29T11:26:01.526Z,9.00
2019-03-29T11:28:32.158Z,8.10
2019-03-29T11:31:02.009Z,5.97
2019-03-29T11:33:32.541Z,5.70
2019-03-29T11:36:02.653Z,4.57
2019-03-29T11:38:32.509Z,5.47
2019-03-29T11:41:02.245Z,8.77
2019-03-29T11:43:32.137Z,8.47
2019-03-29T11:46:02.188Z,6.77
2019-03-29T11:48:32.012Z,7.73
2019-03-29T11:51:02.372Z,8.30
2019-03-29T11:53:32.228Z,6.83
2019-03-29T11:56:02.022Z,7.47
2019-03-29T11:58:31.881Z,7.30
2019-03-29T12:01:01.618Z,7.80
2019-03-29T12:03:33.708Z,7.30
2019-03-29T12:06:03.594Z,7.10
2019-03-29T12:08:33.463Z,7.73
2019-03-29T12:11:06.654Z,7.70
2019-03-29T12:13:41.182Z,7.47
2019-03-29T12:16:08.291Z,6.53
2019-03-29T12:18:40.063Z,8.70
2019-03-29T12:21:09.799Z,7.73
2019-03-29T12:23:39.620Z,11.33
2019-03-29T12:26:09.419Z,9.90
2019-03-29T12:28:39.119Z,8.17
2019-03-29T12:31:09.147Z,10.00
2019-03-29T12:33:39.185Z,6.80
2019-03-29T12:36:09.248Z,8.60
2019-03-29T12:38:39.144Z,7.37
2019-03-29T12:41:14.277Z,8.27
2019-03-29T12:43:54.838Z,6.90
2019-03-29T12:46:15.958Z,7.80
2019-03-29T12:48:46.260Z,7.00
2019-03-29T12:51:16.151Z,7.07
2019-03-29T12:53:46.108Z,6.33
2019-03-29T12:56:15.957Z,8.60
2019-03-29T12:58:45.768Z,5.00
2019-03-29T13:01:18.671Z,5.73
2019-03-29T13:03:49.407Z,7.17
2019-03-29T13:06:19.420Z,4.83
2019-03-29T13:08:50.433Z,8.93
2019-03-29T13:11:26.890Z,6.20
2019-03-29T13:14:09.621Z,4.63
2019-03-29T13:16:28.258Z,5.20
2019-03-29T13:18:58.274Z,4.93
2019-03-29T13:21:28.548Z,5.67
2019-03-29T13:23:58.768Z,5.78
2019-03-29T13:26:37.772Z,4.40
2019-03-29T13:29:07.905Z,4.30
2019-03-29T13:31:40.255Z,4.60
2019-03-29T13:34:10.110Z,4.65
2019-03-29T13:36:39.980Z,4.10
2019-03-29T13:39:10.706Z,4.95
2019-03-29T13:41:40.490Z,4.60
2019-03-29T13:44:23.194Z,4.10
2019-03-29T13:46:42.008Z,5.20
2019-03-29T13:49:12.727Z,3.22
2019-03-29T13:51:42.908Z,4.62
2019-03-29T13:54:12.985Z,6.35
2019-03-29T13:56:43.287Z,5.58
2019-03-29T13:59:13.738Z,6.40
2019-03-29T14:01:43.547Z,4.47
2019-03-29T14:04:13.342Z,7.58
2019-03-29T14:06:43.443Z,5.53
2019-03-29T14:09:14.113Z,7.58
2019-03-29T14:11:45.078Z,5.17
2019-03-29T14:14:15.321Z,4.05
2019-03-29T14:16:45.195Z,4.55
2019-03-29T14:19:17.995Z,4.87
2019-03-29T14:21:47.848Z,4.42
2019-03-29T14:24:17.617Z,5.17
2019-03-29T14:26:47.743Z,4.75
2019-03-29T14:29:17.819Z,3.47
2019-03-29T14:31:47.642Z,3.85
2019-03-29T14:34:17.314Z,3.42
2019-03-29T14:36:47.474Z,4.20
2019-03-29T14:39:17.339Z,4.30
2019-03-29T14:41:47.063Z,3.05
2019-03-29T14:44:18.477Z,7.00
2019-03-29T14:46:49.817Z,3.43
2019-03-29T14:49:19.608Z,7.28
2019-03-29T14:51:49.544Z,38.28
2019-03-29T14:54:19.259Z,3.90
2019-03-29T14:56:49.190Z,5.17
2019-03-29T14:59:21.900Z,3.20
2019-03-29T15:01:51.618Z,4.50
2019-03-29T15:04:21.444Z,3.07
2019-03-29T15:06:53.544Z,3.90
2019-03-29T15:09:23.446Z,3.13
2019-03-29T15:11:53.395Z,3.77
2019-03-29T15:14:25.729Z,3.40
2019-03-29T15:16:55.777Z,9.60
2019-03-29T15:19:25.546Z,4.60
2019-03-29T15:21:56.834Z,4.80
2019-03-29T15:24:26.722Z,2.90
2019-03-29T15:26:56.363Z,5.10
2019-03-29T15:29:26.208Z,2.83
2019-03-29T15:31:56.020Z,2.80
2019-03-29T15:34:26.352Z,2.73
2019-03-29T15:36:56.195Z,3.73
2019-03-29T15:39:26.057Z,3.80
2019-03-29T15:41:56.057Z,4.27
2019-03-29T15:44:25.849Z,5.87
2019-03-29T15:46:55.959Z,3.53
2019-03-29T15:49:25.884Z,3.63
2019-03-29T15:51:55.704Z,3.90
2019-03-29T15:54:25.698Z,4.70
2019-03-29T15:56:55.654Z,3.50
2019-03-29T15:59:25.609Z,7.33
2019-03-29T16:01:56.199Z,3.27
2019-03-29T16:04:26.153Z,3.03
2019-03-29T16:06:57.939Z,2.70
2019-03-29T16:09:27.718Z,3.17
2019-03-29T16:12:00.081Z,2.97
2019-03-29T16:14:30.760Z,3.17
2019-03-29T16:17:00.603Z,3.57
2019-03-29T16:19:30.486Z,3.40
2019-03-29T16:22:06.019Z,4.37
2019-03-29T16:24:35.797Z,3.63
2019-03-29T16:27:06.941Z,3.67
2019-03-29T16:29:40.370Z,3.57
2019-03-29T16:32:10.748Z,3.30
2019-03-29T16:34:40.574Z,4.50
2019-03-29T16:37:10.431Z,5.27
2019-03-29T16:39:40.772Z,4.33
2019-03-29T16:42:10.587Z,5.80
2019-03-29T16:44:40.532Z,4.27
2019-03-29T16:47:10.927Z,5.03
2019-03-29T16:49:43.363Z,6.17
2019-03-29T16:52:13.290Z,4.10
2019-03-29T16:54:43.104Z,5.57
2019-03-29T16:57:12.987Z,3.10
2019-03-29T16:59:43.264Z,4.20
2019-03-29T17:02:13.260Z,5.10
2019-03-29T17:04:45.288Z,4.30
2019-03-29T17:07:15.255Z,8.27
2019-03-29T17:09:51.324Z,7.07
2019-03-29T17:12:28.729Z,3.37
2019-03-29T17:14:58.947Z,5.57
2019-03-29T17:17:28.803Z,6.47
2019-03-29T17:20:03.774Z,4.63
2019-03-29T17:22:33.862Z,4.53
2019-03-29T17:25:03.682Z,3.40
2019-03-29T17:27:33.520Z,2.57
2019-03-29T17:30:06.551Z,4.00
2019-03-29T17:32:36.417Z,3.53
2019-03-29T17:35:06.272Z,4.37
2019-03-29T17:37:36.150Z,6.10
2019-03-29T17:40:07.697Z,4.03
2019-03-29T17:42:37.969Z,3.83
2019-03-29T17:45:08.066Z,5.47
2019-03-29T17:47:40.113Z,5.27
2019-03-29T17:50:09.958Z,3.83
2019-03-29T17:52:40.046Z,5.00
2019-03-29T17:55:09.972Z,4.13
2019-03-29T17:57:40.070Z,6.77
2019-03-29T18:00:11.071Z,4.27
2019-03-29T18:02:43.570Z,4.47
2019-03-29T18:05:13.615Z,3.87
2019-03-29T18:07:43.360Z,6.50
2019-03-29T18:10:13.341Z,5.40
2019-03-29T18:12:43.202Z,4.73
2019-03-29T18:15:12.953Z,5.07
2019-03-29T18:17:44.037Z,5.23
2019-03-29T18:20:16.956Z,7.57
2019-03-29T18:22:47.102Z,7.23
2019-03-29T18:25:17.170Z,8.53
2019-03-29T18:27:47.597Z,7.80
2019-03-29T18:30:19.023Z,5.33
2019-03-29T18:32:49.014Z,6.43
2019-03-29T18:35:18.961Z,8.77
2019-03-29T18:37:51.822Z,7.20
2019-03-29T18:40:31.107Z,6.83
2019-03-29T18:43:00.969Z,8.13
2019-03-29T18:45:31.244Z,4.73
2019-03-29T18:48:01.174Z,8.53
2019-03-29T18:50:31.015Z,8.13
2019-03-29T18:53:01.131Z,8.80
2019-03-29T18:55:30.944Z,6.27
2019-03-29T18:58:00.853Z,6.67
2019-03-29T19:00:33.599Z,11.97
2019-03-29T19:03:03.479Z,7.53
2019-03-29T19:05:35.054Z,10.13
2019-03-29T19:08:05.236Z,11.60
2019-03-29T19:10:35.444Z,7.00
2019-03-29T19:13:05.504Z,9.03
2019-03-29T19:15:36.679Z,8.77
2019-03-29T19:18:06.881Z,8.10
2019-03-29T19:20:37.336Z,8.97
2019-03-29T19:23:07.198Z,6.73
2019-03-29T19:25:37.187Z,9.93
2019-03-29T19:28:07.004Z,8.67
2019-03-29T19:30:42.086Z,6.97
2019-03-29T19:33:12.657Z,6.67
2019-03-29T19:35:43.629Z,4.83
2019-03-29T19:38:13.407Z,6.87
2019-03-29T19:40:43.684Z,10.00
2019-03-29T19:43:13.483Z,7.97
2019-03-29T19:45:43.229Z,9.03
2019-03-29T19:48:13.406Z,6.87
2019-03-29T19:50:43.065Z,8.30
2019-03-29T19:53:13.093Z,7.87
2019-03-29T19:55:42.874Z,7.13
2019-03-29T19:58:13.568Z,4.97
2019-03-29T20:00:46.599Z,5.47
2019-03-29T20:03:16.376Z,6.57
2019-03-29T20:05:47.166Z,6.13
2019-03-29T20:08:19.287Z,6.40
2019-03-29T20:10:49.143Z,6.70
2019-03-29T20:13:19.419Z,6.27
2019-03-29T20:15:52.340Z,6.20
2019-03-29T20:18:22.225Z,5.43
2019-03-29T20:20:57.008Z,5.63
2019-03-29T20:23:27.559Z,8.20
2019-03-29T20:25:57.610Z,7.43
2019-03-29T20:28:31.334Z,7.03
2019-03-29T20:31:01.256Z,6.07
2019-03-29T20:33:31.046Z,7.20
2019-03-29T20:36:06.141Z,8.97
2019-03-29T20:38:35.976Z,8.70
2019-03-29T20:41:05.941Z,7.80
2019-03-29T20:43:36.054Z,7.60
2019-03-29T20:46:10.066Z,8.00
2019-03-29T20:48:43.409Z,7.30
2019-03-29T20:51:14.314Z,9.30
2019-03-29T20:53:44.516Z,7.70
2019-03-29T20:56:14.363Z,12.27
2019-03-29T20:58:44.232Z,10.30
2019-03-29T21:01:17.542Z,9.70
2019-03-29T21:03:50.420Z,6.43
2019-03-29T21:06:29.403Z,10.53
2019-03-29T21:09:00.552Z,8.43
2019-03-29T21:11:35.542Z,6.33
2019-03-29T21:14:13.341Z,9.17
2019-03-29T21:16:43.181Z,7.73
2019-03-29T21:19:15.756Z,9.00
2019-03-29T21:21:49.802Z,7.77
2019-03-29T21:24:19.592Z,7.53
2019-03-29T21:26:49.416Z,6.57
2019-03-29T21:29:20.187Z,5.83
2019-03-29T21:31:49.919Z,5.80
2019-03-29T21:34:19.721Z,9.80
2019-03-29T21:36:49.457Z,8.00
2019-03-29T21:39:19.320Z,7.60
2019-03-29T21:41:49.986Z,8.03
2019-03-29T21:44:20.857Z,7.53
2019-03-29T21:46:50.761Z,6.03
2019-03-29T21:49:20.585Z,5.33
2019-03-29T21:51:50.434Z,9.03
2019-03-29T21:54:21.250Z,6.60
2019-03-29T21:56:51.764Z,10.23
2019-03-29T21:59:25.139Z,4.97
2019-03-29T22:01:54.283Z,5.53
2019-03-29T22:04:24.399Z,5.63
2019-03-29T22:06:54.149Z,6.07
2019-03-29T22:09:36.364Z,6.03
2019-03-29T22:11:55.478Z,4.97
2019-03-29T22:14:25.692Z,7.27
2019-03-29T22:16:55.447Z,7.60
2019-03-29T22:19:25.241Z,5.77
2019-03-29T22:21:55.021Z,6.27
2019-03-29T22:24:24.804Z,7.20
2019-03-29T22:26:54.902Z,6.43
2019-03-29T22:29:24.657Z,8.10
2019-03-29T22:31:54.475Z,6.23
2019-03-29T22:34:24.543Z,5.53
2019-03-29T22:36:54.449Z,7.53
2019-03-29T22:39:24.282Z,5.80
2019-03-29T22:41:54.299Z,8.53
2019-03-29T22:44:24.208Z,7.83
2019-03-29T22:46:54.013Z,6.73
2019-03-29T22:49:23.851Z,6.00
2019-03-29T22:51:54.774Z,9.20
2019-03-29T22:54:24.612Z,7.10
2019-03-29T22:56:54.425Z,5.23
2019-03-29T22:59:24.295Z,6.90
2019-03-29T23:01:54.160Z,6.13
2019-03-29T23:04:23.963Z,6.73
2019-03-29T23:06:56.949Z,5.27
2019-03-29T23:09:26.871Z,7.33
2019-03-29T23:11:56.703Z,5.67
2019-03-29T23:14:26.474Z,6.07
2019-03-29T23:16:57.381Z,6.70
2019-03-29T23:19:27.289Z,6.17
2019-03-29T23:21:57.458Z,6.10
2019-03-29T23:24:27.222Z,5.43
2019-03-29T23:26:57.971Z,6.40
2019-03-29T23:29:27.818Z,7.40
2019-03-29T23:31:57.651Z,6.37
2019-03-29T23:34:27.991Z,6.37
2019-03-29T23:37:00.651Z,9.73
2019-03-29T23:39:30.604Z,6.73
2019-03-29T23:42:00.377Z,7.10
2019-03-29T23:44:30.510Z,9.10
2019-03-29T23:47:02.860Z,6.87
2019-03-29T23:49:32.684Z,6.63
2019-03-29T23:52:02.618Z,7.20
2019-03-29T23:54:33.961Z,7.43
2019-03-29T23:57:04.260Z,6.10
2019-03-29T23:59:34.045Z,9.90
